Gulf Shores, AL (36542)

3:48 PM CDT on August 04, 2015 (GMT -0500)
APRSWXNET | | Change Station
CLOSE
Current Station
Personal Weather Station
Location: Bon Secour, AL
Elevation: 29 ft
Nearby Weather Stations

Elev 29 ft 30.30 °N, 87.70 °W | Updated 31 minutes ago

Scattered Clouds
Scattered Clouds
89 °F
Feels Like 102 °F
N
2
Wind Variable Wind from SSW
Gusts 9.0 mph

Today
High -- | Low -- °F
--% Chance of Precip.
Yesterday
High -- | Low -- °F
Precip. -- in
6:11 AM 7:42 PM
Waning Gibbous, 74% visible
Pressure 29.99 in
Visibility 10.0 miles
Clouds Scattered Clouds 2300 ft
Heat Index 102 °F
Dew Point 77 °F
Humidity 69%
Rainfall in
Snow Depth Not available.
UV 7 out of 12
Pollen 4.20 out of 12
Air Quality Not available.
Flu Activity Not available.
METAR KJKA 042035Z AUTO 24013KT 10SM SCT023 31/25 A2999 RMK AO2 T03120251

More Conditions Fewer Conditions

Pressure 29.99 in
Visibility 10.0 miles
Clouds Scattered Clouds 2300 ft
Heat Index 102 °F
Dew Point 77 °F
Humidity 69%
Rainfall in
Snow Depth Not available.
UV 7 out of 12
Pollen 4.20 out of 12
Air Quality Not available.
Flu Activity Not available.
METAR KJKA 042035Z AUTO 24013KT 10SM SCT023 31/25 A2999 RMK AO2 T03120251

More Conditions Fewer Conditions

10-Day Weather Forecast

×

Almanac

Astronomy

Aug. 04, 2015 Rise Set
Actual Time
Civil Twilight
Nautical Twilight
Astronomical Twilight
Moon
Length of Visible Light
Length of Day
Tomorrow will be .
, % of the Moon is Illuminated

Today's Extremes

State Highs State Lows

Community

WunderPhotos

Upload Photos

1,843,974 photos uploaded!

WunderBlogs® & News

Nearby

Air Quality

  Air Quality AQ Index Pollutant
Not available.

Snow Depth

Station Depth Elevation

Earthquake Activity

City Distance Mag. Time & Date
Minimum magnitude displayed is 2.5.

Coastal Water Temperatures

Place Temperature

Stations

Nearby Weather Stations

Station Location Temp. Windchill Dew Point Humidity Wind Precip. Elev Updated Type